createdAt,value
2023-07-31T00:02:12.556Z,23.29
2023-07-31T00:04:39.764Z,23.23
2023-07-31T00:07:07.546Z,23.26
2023-07-31T00:09:35.198Z,23.29
2023-07-31T00:12:02.814Z,23.33
2023-07-31T00:14:30.095Z,23.30
2023-07-31T00:16:57.487Z,23.32
2023-07-31T00:19:24.712Z,23.33
2023-07-31T00:21:52.016Z,23.33
2023-07-31T00:24:19.318Z,23.39
2023-07-31T00:26:46.619Z,23.46
2023-07-31T00:29:13.845Z,23.54
2023-07-31T00:31:41.299Z,23.64
2023-07-31T00:34:08.686Z,23.67
2023-07-31T00:36:37.061Z,23.81
2023-07-31T00:39:05.687Z,23.88
2023-07-31T00:41:32.987Z,23.88
2023-07-31T00:44:00.475Z,23.90
2023-07-31T00:46:28.540Z,23.91
2023-07-31T00:48:57.489Z,23.84
2023-07-31T00:51:25.911Z,23.82
2023-07-31T00:53:55.323Z,23.84
2023-07-31T00:56:24.977Z,23.80
2023-07-31T00:58:52.416Z,23.78
2023-07-31T01:01:19.839Z,23.68
2023-07-31T01:03:47.116Z,23.67
2023-07-31T01:06:58.924Z,23.66
2023-07-31T01:09:36.626Z,23.67
2023-07-31T01:12:05.526Z,23.62
2023-07-31T01:14:32.788Z,23.44
2023-07-31T01:17:00.172Z,23.39
2023-07-31T01:19:28.818Z,23.40
2023-07-31T01:22:41.656Z,23.32
2023-07-31T01:25:53.265Z,23.31
2023-07-31T01:29:23.972Z,23.25
2023-07-31T01:31:56.629Z,23.14
2023-07-31T01:34:24.663Z,23.17
2023-07-31T01:36:52.524Z,23.15
2023-07-31T01:39:22.023Z,23.16
2023-07-31T01:41:49.274Z,23.14
2023-07-31T01:44:16.535Z,23.11
2023-07-31T01:46:44.030Z,23.00
2023-07-31T01:49:11.546Z,22.94
2023-07-31T01:51:39.112Z,22.96
2023-07-31T01:54:06.712Z,22.95
2023-07-31T01:56:34.038Z,22.92
2023-07-31T01:59:01.453Z,22.87
2023-07-31T02:01:28.937Z,22.86
2023-07-31T02:03:56.365Z,22.85
2023-07-31T02:06:23.950Z,22.73
2023-07-31T02:08:51.206Z,22.66
2023-07-31T02:11:19.351Z,22.63
2023-07-31T02:13:46.589Z,22.63
2023-07-31T02:16:13.855Z,22.61
2023-07-31T02:18:41.167Z,22.58
2023-07-31T02:21:08.479Z,22.57
2023-07-31T02:23:35.724Z,22.50
2023-07-31T02:26:03.205Z,22.49
2023-07-31T02:28:31.366Z,22.48
2023-07-31T02:30:58.956Z,22.48
2023-07-31T02:33:26.760Z,22.42
2023-07-31T02:35:54.373Z,22.41
2023-07-31T02:38:23.573Z,22.42
2023-07-31T02:40:50.888Z,22.42
2023-07-31T02:43:18.232Z,22.41
2023-07-31T02:45:45.583Z,22.44
2023-07-31T02:48:12.994Z,22.39
2023-07-31T02:50:40.369Z,22.37
2023-07-31T02:53:07.982Z,22.40
2023-07-31T02:55:35.311Z,22.35
2023-07-31T02:58:03.211Z,22.28
2023-07-31T03:00:30.609Z,22.30
2023-07-31T03:02:57.995Z,22.35
2023-07-31T03:05:26.328Z,22.29
2023-07-31T03:07:53.634Z,22.24
2023-07-31T03:10:20.909Z,22.17
2023-07-31T03:12:49.283Z,22.10
2023-07-31T03:15:16.708Z,22.09
2023-07-31T03:17:44.029Z,22.12
2023-07-31T03:20:12.202Z,22.12
2023-07-31T03:22:39.338Z,22.16
2023-07-31T03:25:07.598Z,22.15
2023-07-31T03:27:34.911Z,22.18
2023-07-31T03:30:02.160Z,22.18
2023-07-31T03:32:30.927Z,22.16
2023-07-31T03:34:59.380Z,22.14
2023-07-31T03:37:27.315Z,22.12
2023-07-31T03:39:54.542Z,22.14
2023-07-31T03:42:21.887Z,22.08
2023-07-31T03:44:51.857Z,22.05
2023-07-31T03:47:19.135Z,22.01
2023-07-31T03:49:46.385Z,21.97
2023-07-31T03:52:13.643Z,21.93
2023-07-31T03:54:40.880Z,21.92
2023-07-31T03:57:08.330Z,21.93
2023-07-31T03:59:35.533Z,21.93
2023-07-31T04:02:02.900Z,21.91
2023-07-31T04:04:30.390Z,21.95
2023-07-31T04:06:57.744Z,21.92
2023-07-31T04:09:25.668Z,21.93
2023-07-31T04:11:52.888Z,21.89
2023-07-31T04:14:20.180Z,21.87
2023-07-31T04:16:47.441Z,21.94
2023-07-31T04:19:17.842Z,21.88
2023-07-31T04:21:45.280Z,21.92
2023-07-31T04:24:13.265Z,21.99
2023-07-31T04:26:40.640Z,21.96
2023-07-31T04:29:08.315Z,21.97
2023-07-31T04:31:38.680Z,22.09
2023-07-31T04:34:06.998Z,22.11
2023-07-31T04:36:35.962Z,22.12
2023-07-31T04:39:03.688Z,22.14
2023-07-31T04:41:31.117Z,22.17
2023-07-31T04:43:58.446Z,22.24
2023-07-31T04:46:25.840Z,22.27
2023-07-31T04:48:53.503Z,22.29
2023-07-31T04:51:22.233Z,22.24
2023-07-31T04:53:49.625Z,22.27
2023-07-31T04:56:17.615Z,22.41
2023-07-31T04:58:44.806Z,22.47
2023-07-31T05:01:12.071Z,22.51
2023-07-31T05:03:39.484Z,22.50
2023-07-31T05:06:06.766Z,22.59
2023-07-31T05:08:34.594Z,22.65
2023-07-31T05:11:02.030Z,22.66
2023-07-31T05:13:29.345Z,22.71
2023-07-31T05:15:56.569Z,22.81
2023-07-31T05:18:23.955Z,22.85
2023-07-31T05:20:51.192Z,22.89
2023-07-31T05:23:18.398Z,22.94
2023-07-31T05:25:48.174Z,22.96
2023-07-31T05:28:15.557Z,22.94
2023-07-31T05:30:42.971Z,22.97
2023-07-31T05:33:11.546Z,22.99
2023-07-31T05:35:40.437Z,23.01
2023-07-31T05:38:08.413Z,23.04
2023-07-31T05:40:35.719Z,23.06
2023-07-31T05:43:02.963Z,23.09
2023-07-31T05:45:30.230Z,23.23
2023-07-31T05:47:57.625Z,23.32
2023-07-31T05:50:25.072Z,23.37
2023-07-31T05:52:52.726Z,23.50
2023-07-31T05:55:20.199Z,23.55
2023-07-31T05:57:47.627Z,23.64
2023-07-31T06:00:15.486Z,23.65
2023-07-31T06:02:42.911Z,23.67
2023-07-31T06:05:10.431Z,23.76
2023-07-31T06:07:37.678Z,23.88
2023-07-31T06:10:06.768Z,23.98
2023-07-31T06:12:36.617Z,24.04
2023-07-31T06:15:06.178Z,24.03
2023-07-31T06:17:33.622Z,24.10
2023-07-31T06:20:00.905Z,24.22
2023-07-31T06:22:28.103Z,24.25
2023-07-31T06:24:55.493Z,24.25
2023-07-31T06:27:22.840Z,24.24
2023-07-31T06:29:50.133Z,24.18
2023-07-31T06:32:17.884Z,24.15
2023-07-31T06:34:45.072Z,24.16
2023-07-31T06:37:12.560Z,24.22
2023-07-31T06:39:39.832Z,24.27
2023-07-31T06:42:07.457Z,24.36
2023-07-31T06:44:35.565Z,24.40
2023-07-31T06:47:02.954Z,24.35
2023-07-31T06:49:30.643Z,24.33
2023-07-31T06:51:57.900Z,24.39
2023-07-31T06:54:25.143Z,24.46
2023-07-31T06:56:52.398Z,24.60
2023-07-31T06:59:19.713Z,24.74
2023-07-31T07:01:46.977Z,24.82
2023-07-31T07:04:15.683Z,24.88
2023-07-31T07:06:43.514Z,24.94
2023-07-31T07:09:11.115Z,25.06
2023-07-31T07:11:39.700Z,25.15
2023-07-31T07:14:06.934Z,25.14
2023-07-31T07:16:34.358Z,25.01
2023-07-31T07:19:04.933Z,24.95
2023-07-31T07:21:32.909Z,25.00
2023-07-31T07:24:00.297Z,25.03
2023-07-31T07:26:27.516Z,25.22
2023-07-31T07:28:54.989Z,25.42
2023-07-31T07:31:22.345Z,25.15
2023-07-31T07:33:49.590Z,25.31
2023-07-31T07:36:16.826Z,25.27
2023-07-31T07:38:44.039Z,25.27
2023-07-31T07:41:11.262Z,25.24
2023-07-31T07:43:38.767Z,25.30
2023-07-31T07:46:06.508Z,25.41
2023-07-31T07:48:33.838Z,25.47
2023-07-31T07:51:01.060Z,25.63
2023-07-31T07:53:28.356Z,25.39
2023-07-31T07:55:55.641Z,25.49
2023-07-31T07:58:23.108Z,25.73
2023-07-31T08:00:53.732Z,25.62
2023-07-31T08:03:21.331Z,25.52
2023-07-31T08:05:48.613Z,25.77
2023-07-31T08:08:20.077Z,26.03
2023-07-31T08:10:47.397Z,26.08
2023-07-31T08:13:14.955Z,26.21
2023-07-31T08:15:43.902Z,26.41
2023-07-31T08:18:12.893Z,26.38
2023-07-31T08:20:40.304Z,26.19
2023-07-31T08:23:07.670Z,25.72
2023-07-31T08:25:37.185Z,25.70
2023-07-31T08:28:06.197Z,25.97
2023-07-31T08:30:34.954Z,26.01
2023-07-31T08:33:02.804Z,25.73
2023-07-31T08:35:30.378Z,25.82
2023-07-31T08:37:57.778Z,25.67
2023-07-31T08:40:25.373Z,25.55
2023-07-31T08:42:57.690Z,25.59
2023-07-31T08:45:25.176Z,25.88
2023-07-31T08:47:53.516Z,26.06
2023-07-31T08:50:22.438Z,26.28
2023-07-31T08:52:52.912Z,26.37
2023-07-31T08:55:25.394Z,26.39
2023-07-31T08:57:56.691Z,26.30
2023-07-31T09:00:26.497Z,26.36
2023-07-31T09:03:18.583Z,26.17
2023-07-31T09:05:48.203Z,26.25
2023-07-31T09:08:21.501Z,26.26
2023-07-31T09:10:52.849Z,26.63
2023-07-31T09:13:20.206Z,26.32
2023-07-31T09:15:48.529Z,26.56
2023-07-31T09:18:19.708Z,26.87
2023-07-31T09:20:47.205Z,27.17
2023-07-31T09:23:16.277Z,27.15
2023-07-31T09:25:47.660Z,27.30
2023-07-31T09:28:15.321Z,27.46
2023-07-31T09:31:00.900Z,27.69
2023-07-31T09:33:28.131Z,27.86
2023-07-31T09:35:55.631Z,28.12
2023-07-31T09:38:22.917Z,28.01
2023-07-31T09:40:50.807Z,27.57
2023-07-31T09:43:20.608Z,27.91
2023-07-31T09:45:48.743Z,28.32
2023-07-31T09:48:20.480Z,28.50
2023-07-31T09:50:51.106Z,28.33
2023-07-31T09:53:21.005Z,28.29
2023-07-31T09:55:48.455Z,28.70
2023-07-31T09:58:16.031Z,28.78
2023-07-31T10:00:43.403Z,28.19
2023-07-31T10:03:12.366Z,27.78
2023-07-31T10:05:49.224Z,28.21
2023-07-31T10:08:19.415Z,28.53
2023-07-31T10:10:47.825Z,28.75
2023-07-31T10:13:15.682Z,28.54
2023-07-31T10:15:44.701Z,27.61
2023-07-31T10:18:13.022Z,27.48
2023-07-31T10:20:41.428Z,27.33
2023-07-31T10:23:09.519Z,27.69
2023-07-31T10:25:38.716Z,27.10
2023-07-31T10:31:20.801Z,27.61
2023-07-31T10:33:49.322Z,28.35
2023-07-31T10:36:21.302Z,29.01
2023-07-31T10:38:52.236Z,28.60
2023-07-31T10:41:19.781Z,28.10
2023-07-31T10:43:50.663Z,27.89
2023-07-31T10:46:18.647Z,28.09
2023-07-31T10:48:46.386Z,28.07
2023-07-31T10:51:14.388Z,28.04
2023-07-31T10:53:42.857Z,28.18
2023-07-31T10:56:19.701Z,28.21
2023-07-31T10:58:50.009Z,28.27
2023-07-31T11:01:17.644Z,28.23
2023-07-31T11:03:53.582Z,28.67
2023-07-31T11:06:21.485Z,28.83
2023-07-31T11:08:52.263Z,28.73
2023-07-31T11:11:21.945Z,28.93
2023-07-31T11:13:54.910Z,28.67
2023-07-31T11:16:27.107Z,28.26
2023-07-31T11:18:57.172Z,28.49
2023-07-31T11:21:27.076Z,28.87
2023-07-31T11:24:01.814Z,29.47
2023-07-31T11:26:30.198Z,30.64
2023-07-31T11:28:57.958Z,33.31
2023-07-31T11:31:26.107Z,35.39
2023-07-31T11:34:08.908Z,36.22
2023-07-31T11:36:36.357Z,36.92
2023-07-31T11:39:12.001Z,36.59
2023-07-31T11:41:42.848Z,34.81
2023-07-31T11:44:25.558Z,31.03
2023-07-31T11:47:02.357Z,30.14
2023-07-31T11:49:30.923Z,30.25
2023-07-31T11:51:58.316Z,30.08
2023-07-31T11:54:25.876Z,30.43
2023-07-31T11:56:53.555Z,30.81
2023-07-31T11:59:21.420Z,29.93
2023-07-31T12:01:51.347Z,29.92
2023-07-31T12:04:19.088Z,30.22
2023-07-31T12:06:46.527Z,30.03
2023-07-31T12:09:16.909Z,30.29
2023-07-31T12:11:48.745Z,30.03
2023-07-31T12:14:26.620Z,29.42
2023-07-31T12:17:05.540Z,30.20
2023-07-31T12:19:33.244Z,29.58
2023-07-31T12:22:01.528Z,29.65
2023-07-31T12:24:29.736Z,29.31
2023-07-31T12:26:57.305Z,29.62
2023-07-31T12:29:25.210Z,30.26
2023-07-31T12:31:52.833Z,30.78
2023-07-31T12:34:22.394Z,30.73
2023-07-31T12:36:50.263Z,30.92
2023-07-31T12:39:17.778Z,30.24
2023-07-31T12:41:45.076Z,30.43
2023-07-31T12:44:12.445Z,29.58
2023-07-31T12:46:40.144Z,29.51
2023-07-31T12:49:07.866Z,29.72
2023-07-31T12:51:35.223Z,30.19
2023-07-31T12:54:02.891Z,31.21
2023-07-31T12:56:30.353Z,30.99
2023-07-31T12:58:57.817Z,31.19
2023-07-31T13:01:25.413Z,30.01
2023-07-31T13:03:53.191Z,30.57
2023-07-31T13:06:20.769Z,30.86
2023-07-31T13:08:48.308Z,30.88
2023-07-31T13:11:15.808Z,30.68
2023-07-31T13:13:43.485Z,31.14
2023-07-31T13:16:10.909Z,31.95
2023-07-31T13:18:38.363Z,32.78
2023-07-31T13:21:05.609Z,32.81
2023-07-31T13:23:33.254Z,32.59
2023-07-31T13:26:00.552Z,32.11
2023-07-31T13:28:28.280Z,34.62
2023-07-31T13:30:55.783Z,35.98
2023-07-31T13:33:36.417Z,35.72
2023-07-31T13:36:06.663Z,35.47
2023-07-31T13:38:33.970Z,36.08
2023-07-31T13:41:01.745Z,37.87
2023-07-31T13:43:29.149Z,34.31
2023-07-31T13:45:56.770Z,33.18
2023-07-31T13:48:24.219Z,33.50
2023-07-31T13:50:51.746Z,32.92
2023-07-31T13:53:19.423Z,35.34
2023-07-31T13:55:47.172Z,35.27
2023-07-31T13:58:14.629Z,32.82
2023-07-31T14:00:42.153Z,30.97
2023-07-31T14:03:09.991Z,32.84
2023-07-31T14:05:37.414Z,36.19
2023-07-31T14:08:08.315Z,36.36
2023-07-31T14:10:35.880Z,34.31
2023-07-31T14:13:04.294Z,34.79
2023-07-31T14:15:33.246Z,33.24
2023-07-31T14:18:02.355Z,35.95
2023-07-31T14:20:31.145Z,37.51
2023-07-31T14:22:58.671Z,33.79
2023-07-31T14:25:26.532Z,34.41
2023-07-31T14:27:53.732Z,34.84
2023-07-31T14:30:21.229Z,37.40
2023-07-31T14:32:49.008Z,38.67
2023-07-31T14:35:16.800Z,35.62
2023-07-31T14:37:46.473Z,36.05
2023-07-31T14:40:14.883Z,36.50
2023-07-31T14:42:42.384Z,37.05
2023-07-31T14:45:11.381Z,37.22
2023-07-31T14:47:38.954Z,38.71
2023-07-31T14:50:07.929Z,39.23
2023-07-31T14:52:35.511Z,40.09
2023-07-31T14:55:03.234Z,36.47
2023-07-31T14:57:30.585Z,33.85
2023-07-31T14:59:57.996Z,33.64
2023-07-31T15:02:28.698Z,33.14
2023-07-31T15:04:56.411Z,35.41
2023-07-31T15:07:24.951Z,34.98
2023-07-31T15:09:52.220Z,36.72
2023-07-31T15:12:20.910Z,36.51
2023-07-31T15:14:50.956Z,34.34
2023-07-31T15:17:18.690Z,35.97
2023-07-31T15:19:46.375Z,36.28
2023-07-31T15:22:13.545Z,35.37
2023-07-31T15:24:40.722Z,35.21
2023-07-31T15:27:09.506Z,33.93
2023-07-31T15:29:38.106Z,33.64
2023-07-31T15:32:07.182Z,36.59
2023-07-31T15:34:34.794Z,38.07
2023-07-31T15:37:02.019Z,39.12
2023-07-31T15:39:29.275Z,39.69
2023-07-31T15:41:56.817Z,38.81
2023-07-31T15:44:23.926Z,35.01
2023-07-31T15:46:51.084Z,34.11
2023-07-31T15:49:18.693Z,34.39
2023-07-31T15:51:45.939Z,36.15
2023-07-31T15:54:13.926Z,35.03
2023-07-31T15:56:41.412Z,37.11
2023-07-31T15:59:08.786Z,37.45
2023-07-31T16:01:36.114Z,38.61
2023-07-31T16:04:03.457Z,39.42
2023-07-31T16:06:30.623Z,39.28
2023-07-31T16:08:57.804Z,38.06
2023-07-31T16:11:25.031Z,39.12
2023-07-31T16:13:52.201Z,39.61
2023-07-31T16:16:21.146Z,37.02
2023-07-31T16:18:48.423Z,36.83
2023-07-31T16:21:15.638Z,38.35
2023-07-31T16:23:42.789Z,36.83
2023-07-31T16:26:11.623Z,34.98
2023-07-31T16:28:38.815Z,35.11
2023-07-31T16:31:06.636Z,36.39
2023-07-31T16:33:34.668Z,36.38
2023-07-31T16:36:01.973Z,36.73
2023-07-31T16:38:29.132Z,35.34
2023-07-31T16:40:56.369Z,34.90
2023-07-31T16:43:23.662Z,36.26
2023-07-31T16:45:51.065Z,35.54
2023-07-31T16:48:18.344Z,35.72
2023-07-31T16:50:45.931Z,35.80
2023-07-31T16:53:13.160Z,35.46
2023-07-31T16:55:40.487Z,36.34
2023-07-31T16:58:07.776Z,37.49
2023-07-31T17:00:35.103Z,37.22
2023-07-31T17:03:04.639Z,36.66
2023-07-31T17:05:32.143Z,34.93
2023-07-31T17:07:59.371Z,34.71
2023-07-31T17:10:26.578Z,34.29
2023-07-31T17:12:54.750Z,35.35
2023-07-31T17:15:22.037Z,34.97
2023-07-31T17:17:56.780Z,34.01
2023-07-31T17:20:24.288Z,35.42
2023-07-31T17:22:51.471Z,35.10
2023-07-31T17:25:22.369Z,34.71
2023-07-31T17:27:51.339Z,34.67
2023-07-31T17:30:20.526Z,33.99
2023-07-31T17:32:47.834Z,33.10
2023-07-31T17:35:15.129Z,31.65
2023-07-31T17:37:42.285Z,31.18
2023-07-31T17:40:10.533Z,31.36
2023-07-31T17:42:37.775Z,31.18
2023-07-31T17:45:05.836Z,30.98
2023-07-31T17:47:33.203Z,30.38
2023-07-31T17:50:00.612Z,30.22
2023-07-31T17:52:28.103Z,30.45
2023-07-31T17:54:55.375Z,30.68
2023-07-31T17:57:22.892Z,30.69
2023-07-31T17:59:51.923Z,30.56
2023-07-31T18:02:20.392Z,30.35
2023-07-31T18:04:48.004Z,30.47
2023-07-31T18:07:15.373Z,30.51
2023-07-31T18:09:43.520Z,30.37
2023-07-31T18:12:10.803Z,30.28
2023-07-31T18:14:38.969Z,30.14
2023-07-31T18:17:07.329Z,29.97
2023-07-31T18:19:34.669Z,29.79
2023-07-31T18:22:01.822Z,29.96
2023-07-31T18:24:29.292Z,29.81
2023-07-31T18:26:56.482Z,29.77
2023-07-31T18:29:23.690Z,29.65
2023-07-31T18:31:51.181Z,29.35
2023-07-31T18:34:18.433Z,29.05
2023-07-31T18:36:45.708Z,29.11
2023-07-31T18:39:12.885Z,29.08
2023-07-31T18:41:40.994Z,28.97
2023-07-31T18:44:08.211Z,28.86
2023-07-31T18:46:35.518Z,28.83
2023-07-31T18:49:02.895Z,28.65
2023-07-31T18:51:31.580Z,28.60
2023-07-31T18:53:58.880Z,28.49
2023-07-31T18:56:26.137Z,28.47
2023-07-31T18:58:54.893Z,28.37
2023-07-31T19:01:22.337Z,28.28
2023-07-31T19:03:49.697Z,28.22
2023-07-31T19:06:16.999Z,28.19
2023-07-31T19:08:44.245Z,28.10
2023-07-31T19:11:24.399Z,27.99
2023-07-31T19:14:00.486Z,27.91
2023-07-31T19:16:27.837Z,27.79
2023-07-31T19:18:55.081Z,27.66
2023-07-31T19:21:22.327Z,27.58
2023-07-31T19:23:49.620Z,27.65
2023-07-31T19:26:18.960Z,27.60
2023-07-31T19:28:46.146Z,27.56
2023-07-31T19:31:13.412Z,27.52
2023-07-31T19:33:40.669Z,27.44
2023-07-31T19:36:08.576Z,27.37
2023-07-31T19:38:35.832Z,27.31
2023-07-31T19:41:03.118Z,27.33
2023-07-31T19:43:30.485Z,27.27
2023-07-31T19:45:57.698Z,27.26
2023-07-31T19:48:24.932Z,27.17
2023-07-31T19:50:52.460Z,27.07
2023-07-31T19:53:19.737Z,27.02
2023-07-31T19:55:48.240Z,27.01
2023-07-31T19:58:15.399Z,26.96
2023-07-31T20:00:42.944Z,26.97
2023-07-31T20:03:10.228Z,26.95
2023-07-31T20:05:38.118Z,26.85
2023-07-31T20:08:05.338Z,26.75
2023-07-31T20:10:33.280Z,26.70
2023-07-31T20:13:00.522Z,26.63
2023-07-31T20:15:27.732Z,26.56
2023-07-31T20:17:54.995Z,26.50
2023-07-31T20:20:22.308Z,26.48
2023-07-31T20:22:49.548Z,26.44
2023-07-31T20:25:17.209Z,26.41
2023-07-31T20:27:44.377Z,26.37
2023-07-31T20:30:11.743Z,26.38
2023-07-31T20:32:39.038Z,26.33
2023-07-31T20:35:07.027Z,26.31
2023-07-31T20:37:34.275Z,26.22
2023-07-31T20:40:07.770Z,26.18
2023-07-31T20:42:35.074Z,26.14
2023-07-31T20:45:02.708Z,26.09
2023-07-31T20:47:31.049Z,26.05
2023-07-31T20:49:58.311Z,26.05
2023-07-31T20:52:25.502Z,26.04
2023-07-31T20:54:53.049Z,25.99
2023-07-31T20:57:20.270Z,25.96
2023-07-31T20:59:47.429Z,25.91
2023-07-31T21:02:14.744Z,25.87
2023-07-31T21:04:42.018Z,25.82
2023-07-31T21:07:11.803Z,25.79
2023-07-31T21:09:39.015Z,25.70
2023-07-31T21:12:07.384Z,25.69
2023-07-31T21:14:34.568Z,25.64
2023-07-31T21:17:01.760Z,25.62
2023-07-31T21:19:29.016Z,25.60
2023-07-31T21:21:56.339Z,25.62
2023-07-31T21:24:23.570Z,25.63
2023-07-31T21:26:50.852Z,25.62
2023-07-31T21:29:18.133Z,25.57
2023-07-31T21:31:45.346Z,25.57
2023-07-31T21:34:12.563Z,25.50
2023-07-31T21:36:39.931Z,25.49
2023-07-31T21:39:07.339Z,25.42
2023-07-31T21:41:34.610Z,25.44
2023-07-31T21:44:01.814Z,25.39
2023-07-31T21:46:29.357Z,25.32
2023-07-31T21:48:56.680Z,25.33
2023-07-31T21:51:24.026Z,25.35
2023-07-31T21:53:51.171Z,25.40
2023-07-31T21:56:18.410Z,25.33
2023-07-31T21:58:45.600Z,25.33
2023-07-31T22:01:12.905Z,25.34
2023-07-31T22:03:40.995Z,25.28
2023-07-31T22:06:08.051Z,25.25
2023-07-31T22:08:35.232Z,25.24
2023-07-31T22:11:02.495Z,25.18
2023-07-31T22:13:29.801Z,25.10
2023-07-31T22:15:57.133Z,25.13
2023-07-31T22:18:24.359Z,25.13
2023-07-31T22:20:52.281Z,25.20
2023-07-31T22:23:19.856Z,25.18
2023-07-31T22:25:47.041Z,25.17
2023-07-31T22:28:20.852Z,25.13
2023-07-31T22:30:49.476Z,25.05
2023-07-31T22:33:16.767Z,24.99
2023-07-31T22:35:44.056Z,24.97
2023-07-31T22:38:11.226Z,24.98
2023-07-31T22:40:38.417Z,25.02
2023-07-31T22:43:05.621Z,25.02
2023-07-31T22:45:32.825Z,24.93
2023-07-31T22:48:00.117Z,24.93
2023-07-31T22:50:27.435Z,24.96
2023-07-31T22:52:55.516Z,25.01
2023-07-31T22:55:22.728Z,25.01
2023-07-31T22:57:52.128Z,24.93
2023-07-31T23:00:19.373Z,24.87
2023-07-31T23:02:46.749Z,24.84
2023-07-31T23:05:13.995Z,24.97
2023-07-31T23:07:41.248Z,24.93
2023-07-31T23:10:09.321Z,24.99
2023-07-31T23:12:36.525Z,24.92
2023-07-31T23:15:04.306Z,24.92
2023-07-31T23:17:31.649Z,24.90
2023-07-31T23:19:58.962Z,24.81
2023-07-31T23:22:26.159Z,24.75
2023-07-31T23:24:54.031Z,24.72
2023-07-31T23:27:21.153Z,24.73
2023-07-31T23:29:48.328Z,24.75
2023-07-31T23:32:16.624Z,24.76
2023-07-31T23:34:43.955Z,24.68
2023-07-31T23:37:11.123Z,24.63
2023-07-31T23:39:38.411Z,24.65
2023-07-31T23:42:05.969Z,24.60
2023-07-31T23:44:35.987Z,24.58
2023-07-31T23:47:03.279Z,24.58
2023-07-31T23:49:30.486Z,24.55
2023-07-31T23:51:57.779Z,24.61
2023-07-31T23:54:24.969Z,24.60
2023-07-31T23:56:52.284Z,24.53
2023-07-31T23:59:19.623Z,24.59
